createdAt,value
2023-01-02T00:01:00.792Z,3.85
2023-01-02T00:03:28.267Z,3.55
2023-01-02T00:05:55.703Z,3.53
2023-01-02T00:08:22.995Z,3.83
2023-01-02T00:10:52.867Z,3.60
2023-01-02T00:15:47.836Z,3.35
2023-01-02T00:18:15.361Z,3.90
2023-01-02T00:20:42.606Z,3.80
2023-01-02T00:23:10.032Z,3.45
2023-01-02T00:25:37.601Z,2.90
2023-01-02T00:28:05.008Z,3.17
2023-01-02T00:30:37.862Z,2.65
2023-01-02T00:33:06.587Z,2.75
2023-01-02T00:35:34.182Z,3.47
2023-01-02T00:38:01.418Z,3.00
2023-01-02T00:40:28.723Z,3.42
2023-01-02T00:42:55.894Z,3.72
2023-01-02T00:45:23.616Z,3.15
2023-01-02T00:47:51.382Z,3.00
2023-01-02T00:50:18.836Z,3.25
2023-01-02T00:52:46.203Z,3.33
2023-01-02T00:55:13.562Z,3.13
2023-01-02T00:57:40.846Z,2.85
2023-01-02T01:00:08.440Z,2.85
2023-01-02T01:02:35.810Z,3.40
2023-01-02T01:05:03.128Z,3.03
2023-01-02T01:07:30.823Z,2.90
2023-01-02T01:09:58.461Z,4.60
2023-01-02T01:12:25.779Z,3.78
2023-01-02T01:14:53.616Z,4.70
2023-01-02T01:17:20.897Z,3.97
2023-01-02T01:19:48.229Z,7.57
2023-01-02T01:22:15.434Z,7.97
2023-01-02T01:24:42.790Z,3.05
2023-01-02T01:27:10.269Z,3.03
2023-01-02T01:29:37.598Z,3.40
2023-01-02T01:32:05.108Z,3.15
2023-01-02T01:34:32.481Z,3.90
2023-01-02T01:36:59.797Z,3.10
2023-01-02T01:39:27.047Z,3.40
2023-01-02T01:41:54.352Z,3.78
2023-01-02T01:44:47.042Z,3.85
2023-01-02T01:47:41.131Z,2.85
2023-01-02T01:50:33.689Z,2.80
2023-01-02T01:53:05.265Z,2.83
2023-01-02T01:55:39.124Z,3.15
2023-01-02T01:58:09.385Z,2.53
2023-01-02T02:00:37.045Z,2.47
2023-01-02T02:03:07.499Z,3.10
2023-01-02T02:05:35.025Z,3.35
2023-01-02T02:08:14.615Z,2.30
2023-01-02T02:10:44.050Z,2.80
2023-01-02T02:13:11.452Z,2.78
2023-01-02T02:15:51.030Z,2.42
2023-01-02T02:18:49.195Z,2.38
2023-01-02T02:21:28.956Z,2.70
2023-01-02T02:24:30.324Z,2.65
2023-01-02T02:27:28.759Z,2.42
2023-01-02T02:30:23.008Z,2.38
2023-01-02T02:33:25.825Z,2.47
2023-01-02T02:36:11.909Z,2.30
2023-01-02T02:38:54.936Z,2.13
2023-01-02T02:41:35.261Z,2.50
2023-01-02T02:46:35.669Z,2.42
2023-01-02T02:49:11.052Z,2.22
2023-01-02T02:51:51.824Z,2.10
2023-01-02T02:54:22.826Z,2.30
2023-01-02T02:56:51.256Z,2.08
2023-01-02T02:59:19.927Z,2.72
2023-01-02T03:01:47.398Z,2.50
2023-01-02T03:04:19.912Z,2.03
2023-01-02T03:07:07.429Z,1.70
2023-01-02T03:09:38.909Z,1.88
2023-01-02T03:12:27.478Z,1.80
2023-01-02T03:15:24.680Z,1.60
2023-01-02T03:18:26.040Z,1.55
2023-01-02T03:21:03.049Z,1.20
2023-01-02T03:23:31.373Z,1.10
2023-01-02T03:25:59.391Z,1.08
2023-01-02T03:28:27.152Z,1.20
2023-01-02T03:30:57.251Z,1.13
2023-01-02T03:36:17.531Z,0.77
2023-01-02T03:38:48.765Z,0.93
2023-01-02T03:41:23.101Z,0.60
2023-01-02T03:43:56.708Z,0.63
2023-01-02T03:46:38.756Z,1.10
2023-01-02T03:49:14.702Z,0.40
2023-01-02T03:51:42.060Z,0.50
2023-01-02T03:54:09.843Z,0.50
2023-01-02T03:56:57.846Z,0.65
2023-01-02T03:59:38.896Z,0.60
2023-01-02T04:02:18.301Z,0.60
2023-01-02T04:04:56.987Z,0.77
2023-01-02T04:07:36.680Z,0.40
2023-01-02T04:10:06.157Z,0.45
2023-01-02T04:12:36.340Z,0.68
2023-01-02T04:15:10.087Z,0.50
2023-01-02T04:17:55.655Z,0.60
2023-01-02T04:20:28.479Z,0.90
2023-01-02T04:23:03.858Z,0.40
2023-01-02T04:25:38.460Z,0.43
2023-01-02T04:28:26.761Z,0.60
2023-01-02T04:31:25.783Z,0.57
2023-01-02T04:33:57.346Z,0.70
2023-01-02T04:36:25.337Z,0.30
2023-01-02T04:38:52.641Z,0.70
2023-01-02T04:41:29.178Z,0.75
2023-01-02T04:43:57.125Z,0.50
2023-01-02T04:46:25.551Z,0.60
2023-01-02T04:48:54.317Z,0.47
2023-01-02T04:51:22.489Z,0.60
2023-01-02T04:53:50.564Z,0.90
2023-01-02T04:56:18.176Z,0.43
2023-01-02T04:58:46.249Z,0.50
2023-01-02T05:01:16.749Z,0.45
2023-01-02T05:03:46.470Z,0.60
2023-01-02T05:06:14.248Z,0.60
2023-01-02T05:08:41.888Z,0.50
2023-01-02T05:11:20.185Z,0.60
2023-01-02T05:13:47.446Z,0.70
2023-01-02T05:16:14.879Z,0.52
2023-01-02T05:18:42.283Z,0.70
2023-01-02T05:21:30.086Z,0.43
2023-01-02T05:23:58.931Z,0.60
2023-01-02T05:26:26.733Z,0.63
2023-01-02T05:28:54.805Z,0.40
2023-01-02T05:31:22.531Z,0.45
2023-01-02T05:33:53.869Z,0.52
2023-01-02T05:36:22.607Z,0.40
2023-01-02T05:38:50.050Z,0.55
2023-01-02T05:41:17.481Z,0.73
2023-01-02T05:43:44.880Z,0.45
2023-01-02T05:46:17.062Z,0.40
2023-01-02T05:48:44.994Z,0.43
2023-01-02T05:51:14.542Z,0.75
2023-01-02T05:53:41.876Z,0.63
2023-01-02T05:56:14.414Z,0.50
2023-01-02T05:58:43.471Z,0.50
2023-01-02T06:01:13.311Z,0.80
2023-01-02T06:03:41.275Z,0.50
2023-01-02T06:06:10.444Z,0.55
2023-01-02T06:08:38.354Z,0.47
2023-01-02T06:11:06.635Z,0.40
2023-01-02T06:13:35.963Z,0.60
2023-01-02T06:16:04.502Z,0.50
2023-01-02T06:18:33.180Z,0.70
2023-01-02T06:21:05.404Z,0.70
2023-01-02T06:23:33.112Z,1.10
2023-01-02T06:26:05.793Z,1.55
2023-01-02T06:28:33.632Z,1.13
2023-01-02T06:31:06.470Z,0.60
2023-01-02T06:33:34.269Z,0.52
2023-01-02T06:36:12.802Z,0.50
2023-01-02T06:38:40.473Z,0.60
2023-01-02T06:41:09.029Z,0.70
2023-01-02T06:43:39.123Z,0.65
2023-01-02T06:46:06.589Z,0.65
2023-01-02T06:48:34.458Z,0.45
2023-01-02T06:51:06.395Z,0.50
2023-01-02T06:53:35.389Z,0.50
2023-01-02T06:56:03.204Z,0.50
2023-01-02T06:58:32.459Z,0.80
2023-01-02T07:01:08.533Z,0.80
2023-01-02T07:03:36.105Z,0.57
2023-01-02T07:06:07.465Z,0.47
2023-01-02T07:08:34.951Z,0.70
2023-01-02T07:11:11.564Z,0.50
2023-01-02T07:13:39.940Z,0.60
2023-01-02T07:16:09.565Z,0.50
2023-01-02T07:18:37.283Z,0.57
2023-01-02T07:21:05.389Z,0.95
2023-01-02T07:23:33.247Z,1.20
2023-01-02T07:26:01.961Z,1.58
2023-01-02T07:28:30.183Z,0.60
2023-01-02T07:30:59.244Z,0.70
2023-01-02T07:33:28.410Z,0.75
2023-01-02T07:36:03.625Z,0.67
2023-01-02T07:38:31.104Z,0.80
2023-01-02T07:40:58.372Z,0.80
2023-01-02T07:43:26.111Z,0.70
2023-01-02T07:45:53.418Z,0.80
2023-01-02T07:48:20.846Z,0.50
2023-01-02T07:50:48.244Z,0.80
2023-01-02T07:53:15.673Z,0.95
2023-01-02T07:55:43.100Z,1.00
2023-01-02T07:58:10.492Z,1.30
2023-01-02T08:00:37.760Z,0.52
2023-01-02T08:03:06.006Z,0.52
2023-01-02T08:05:34.405Z,0.60
2023-01-02T08:08:01.639Z,0.63
2023-01-02T08:10:28.972Z,0.50
2023-01-02T08:12:57.434Z,1.10
2023-01-02T08:15:25.743Z,1.10
2023-01-02T08:17:53.101Z,0.98
2023-01-02T08:20:20.292Z,0.73
2023-01-02T08:22:47.518Z,0.80
2023-01-02T08:25:17.128Z,1.10
2023-01-02T08:27:44.511Z,0.98
2023-01-02T08:30:12.323Z,0.77
2023-01-02T08:32:39.907Z,0.95
2023-01-02T08:35:08.015Z,1.05
2023-01-02T08:37:35.578Z,1.20
2023-01-02T08:40:03.058Z,0.90
2023-01-02T08:42:32.129Z,1.00
2023-01-02T08:44:59.341Z,0.70
2023-01-02T08:47:26.720Z,1.00
2023-01-02T08:49:54.219Z,0.90
2023-01-02T08:52:21.740Z,1.35
2023-01-02T08:54:49.001Z,3.17
2023-01-02T08:57:16.728Z,0.80
2023-01-02T08:59:44.041Z,1.75
2023-01-02T09:02:15.348Z,2.42
2023-01-02T09:04:42.797Z,1.35
2023-01-02T09:07:10.082Z,2.08
2023-01-02T09:09:37.452Z,1.02
2023-01-02T09:12:05.187Z,0.93
2023-01-02T09:14:32.508Z,0.80
2023-01-02T09:17:00.015Z,0.80
2023-01-02T09:19:27.529Z,0.88
2023-01-02T09:21:54.857Z,1.15
2023-01-02T09:24:22.101Z,2.00
2023-01-02T09:26:49.331Z,1.30
2023-01-02T09:29:16.626Z,3.15
2023-01-02T09:31:44.076Z,2.00
2023-01-02T09:34:11.968Z,7.13
2023-01-02T09:36:39.837Z,5.85
2023-01-02T09:39:08.910Z,3.45
2023-01-02T09:41:38.630Z,4.32
2023-01-02T09:44:35.787Z,1.13
2023-01-02T09:47:12.437Z,1.75
2023-01-02T09:49:49.796Z,1.30
2023-01-02T09:52:30.821Z,1.80
2023-01-02T09:54:59.746Z,1.90
2023-01-02T09:57:26.975Z,1.98
2023-01-02T10:00:04.025Z,6.70
2023-01-02T10:03:13.231Z,3.70
2023-01-02T10:05:59.357Z,4.40
2023-01-02T10:08:53.803Z,1.58
2023-01-02T10:11:41.245Z,2.33
2023-01-02T10:14:38.794Z,4.40
2023-01-02T10:17:13.095Z,1.60
2023-01-02T10:19:58.547Z,1.33
2023-01-02T10:22:32.445Z,1.73
2023-01-02T10:25:15.862Z,1.40
2023-01-02T10:27:47.557Z,1.50
2023-01-02T10:30:26.219Z,2.30
2023-01-02T10:33:02.792Z,1.80
2023-01-02T10:35:54.108Z,1.83
2023-01-02T10:38:21.505Z,1.40
2023-01-02T10:40:50.641Z,1.50
2023-01-02T10:43:18.534Z,5.70
2023-01-02T10:45:45.922Z,2.40
2023-01-02T10:48:13.763Z,6.15
2023-01-02T10:50:44.713Z,1.60
2023-01-02T10:53:22.867Z,5.50
2023-01-02T10:55:50.165Z,1.92
2023-01-02T10:58:17.507Z,1.88
2023-01-02T11:00:44.919Z,4.25
2023-01-02T11:03:12.485Z,3.35
2023-01-02T11:06:10.285Z,7.65
2023-01-02T11:08:45.394Z,4.15
2023-01-02T11:11:17.779Z,11.52
2023-01-02T11:13:54.321Z,1.90
2023-01-02T11:16:24.754Z,4.75
2023-01-02T11:18:58.352Z,6.78
2023-01-02T11:21:33.524Z,5.70
2023-01-02T11:24:06.311Z,13.63
2023-01-02T11:26:34.610Z,7.22
2023-01-02T11:29:08.696Z,5.30
2023-01-02T11:31:36.601Z,4.68
2023-01-02T11:34:19.277Z,5.05
2023-01-02T11:36:48.597Z,3.50
2023-01-02T11:39:22.891Z,2.40
2023-01-02T11:42:49.014Z,4.85
2023-01-02T11:45:18.097Z,7.10
2023-01-02T11:47:48.552Z,9.18
2023-01-02T11:50:27.166Z,12.27
2023-01-02T11:52:58.790Z,19.00
2023-01-02T11:55:55.360Z,9.77
2023-01-02T11:58:44.542Z,4.75
2023-01-02T12:01:31.354Z,5.15
2023-01-02T12:03:59.380Z,6.30
2023-01-02T12:06:47.675Z,4.43
2023-01-02T12:09:22.960Z,4.28
2023-01-02T12:12:08.687Z,3.03
2023-01-02T12:14:55.212Z,3.17
2023-01-02T12:17:32.921Z,2.97
2023-01-02T12:20:21.736Z,3.38
2023-01-02T12:23:01.197Z,4.25
2023-01-02T12:25:42.665Z,2.63
2023-01-02T12:28:25.215Z,4.25
2023-01-02T12:31:15.643Z,5.60
2023-01-02T12:33:46.335Z,4.50
2023-01-02T12:36:43.674Z,3.08
2023-01-02T12:39:32.311Z,3.30
2023-01-02T12:42:18.820Z,3.92
2023-01-02T12:44:52.822Z,2.20
2023-01-02T12:47:49.567Z,2.08
2023-01-02T12:50:48.455Z,1.60
2023-01-02T12:53:28.282Z,1.55
2023-01-02T12:56:01.481Z,1.48
2023-01-02T12:58:44.319Z,1.50
2023-01-02T13:01:15.902Z,1.70
2023-01-02T13:03:44.787Z,1.38
2023-01-02T13:06:43.298Z,2.22
2023-01-02T13:09:06.586Z,3.55
2023-01-02T13:11:54.192Z,3.15
2023-01-02T13:14:30.857Z,1.88
2023-01-02T13:17:19.541Z,2.95
2023-01-02T13:19:54.306Z,2.35
2023-01-02T13:22:28.169Z,4.78
2023-01-02T13:24:56.943Z,4.50
2023-01-02T13:27:24.761Z,5.93
2023-01-02T13:29:53.150Z,3.80
2023-01-02T13:32:28.730Z,5.00
2023-01-02T13:34:56.717Z,2.97
2023-01-02T13:37:26.245Z,1.80
2023-01-02T13:39:55.794Z,1.98
2023-01-02T13:42:55.513Z,1.40
2023-01-02T13:45:24.764Z,1.27
2023-01-02T13:47:58.530Z,1.83
2023-01-02T13:50:31.422Z,1.20
2023-01-02T13:52:58.609Z,1.75
2023-01-02T13:55:41.139Z,1.30
2023-01-02T13:58:20.613Z,1.40
2023-01-02T14:00:54.300Z,0.98
2023-01-02T14:03:25.325Z,1.15
2023-01-02T14:06:03.746Z,0.70
2023-01-02T14:08:42.436Z,1.38
2023-01-02T14:11:13.543Z,1.00
2023-01-02T14:13:46.464Z,1.45
2023-01-02T14:16:23.129Z,1.20
2023-01-02T14:19:18.191Z,0.95
2023-01-02T14:21:55.064Z,1.10
2023-01-02T14:24:29.708Z,1.10
2023-01-02T14:27:06.493Z,1.33
2023-01-02T14:29:43.103Z,3.17
2023-01-02T14:32:18.906Z,1.27
2023-01-02T14:34:48.970Z,1.10
2023-01-02T14:37:49.493Z,2.08
2023-01-02T14:40:22.986Z,1.50
2023-01-02T14:43:21.080Z,1.25
2023-01-02T14:45:53.595Z,1.40
2023-01-02T14:48:30.479Z,1.27
2023-01-02T14:51:02.807Z,1.77
2023-01-02T14:53:33.010Z,1.45
2023-01-02T14:58:42.309Z,1.65
2023-01-02T15:01:13.177Z,1.17
2023-01-02T15:03:40.729Z,1.50
2023-01-02T15:06:13.768Z,1.38
2023-01-02T15:08:49.248Z,1.10
2023-01-02T15:11:40.998Z,1.25
2023-01-02T15:14:21.903Z,1.60
2023-01-02T15:16:54.113Z,1.42
2023-01-02T15:19:32.542Z,1.60
2023-01-02T15:22:09.391Z,1.73
2023-01-02T15:24:37.016Z,1.60
2023-01-02T15:27:29.979Z,2.38
2023-01-02T15:30:02.547Z,1.80
2023-01-02T15:32:32.796Z,1.58
2023-01-02T15:37:45.750Z,1.75
2023-01-02T15:40:16.188Z,1.90
2023-01-02T15:43:02.735Z,9.02
2023-01-02T15:45:30.630Z,4.00
2023-01-02T15:47:58.402Z,2.35
2023-01-02T15:50:28.122Z,1.60
2023-01-02T15:53:08.403Z,1.75
2023-01-02T15:55:40.824Z,1.50
2023-01-02T15:58:17.066Z,2.10
2023-01-02T16:00:46.119Z,1.75
2023-01-02T16:04:01.907Z,1.83
2023-01-02T16:06:42.877Z,1.83
2023-01-02T16:09:24.099Z,1.83
2023-01-02T16:11:54.483Z,8.52
2023-01-02T16:14:27.291Z,7.10
2023-01-02T16:17:20.635Z,2.28
2023-01-02T16:19:58.998Z,1.90
2023-01-02T16:22:30.562Z,2.13
2023-01-02T16:25:13.185Z,2.00
2023-01-02T16:28:00.450Z,2.40
2023-01-02T16:30:28.545Z,2.10
2023-01-02T16:32:56.160Z,2.50
2023-01-02T16:35:31.376Z,2.38
2023-01-02T16:38:00.721Z,2.50
2023-01-02T16:41:00.137Z,2.38
2023-01-02T16:43:19.884Z,2.10
2023-01-02T16:45:48.965Z,2.40
2023-01-02T16:48:20.527Z,2.17
2023-01-02T16:50:50.527Z,2.28
2023-01-02T16:53:38.174Z,2.28
2023-01-02T16:56:05.720Z,2.53
2023-01-02T16:58:32.987Z,3.00
2023-01-02T17:01:01.238Z,22.45
2023-01-02T17:03:28.959Z,4.95
2023-01-02T17:06:03.256Z,2.85
2023-01-02T17:08:32.277Z,2.53
2023-01-02T17:11:00.686Z,2.38
2023-01-02T17:13:28.876Z,2.47
2023-01-02T17:15:56.788Z,6.63
2023-01-02T17:18:24.909Z,6.30
2023-01-02T17:20:52.325Z,11.70
2023-01-02T17:23:21.075Z,7.07
2023-01-02T17:25:49.609Z,6.82
2023-01-02T17:28:17.321Z,7.35
2023-01-02T17:30:49.253Z,11.90
2023-01-02T17:33:17.437Z,13.60
2023-01-02T17:35:48.640Z,7.13
2023-01-02T17:38:16.228Z,3.35
2023-01-02T17:40:44.277Z,3.63
2023-01-02T17:43:11.621Z,7.93
2023-01-02T17:45:41.666Z,23.98
2023-01-02T17:48:12.311Z,10.35
2023-01-02T17:50:40.813Z,5.88
2023-01-02T17:53:08.513Z,26.20
2023-01-02T17:55:35.978Z,7.72
2023-01-02T17:58:04.121Z,12.35
2023-01-02T18:00:31.498Z,7.25
2023-01-02T18:02:58.767Z,6.90
2023-01-02T18:05:26.277Z,6.47
2023-01-02T18:07:53.779Z,9.93
2023-01-02T18:10:22.249Z,8.88
2023-01-02T18:15:21.540Z,6.47
2023-01-02T18:17:49.891Z,6.00
2023-01-02T18:20:19.940Z,5.38
2023-01-02T18:22:50.189Z,5.80
2023-01-02T18:25:27.316Z,5.50
2023-01-02T18:28:00.504Z,5.57
2023-01-02T18:30:28.124Z,5.78
2023-01-02T18:33:13.202Z,5.82
2023-01-02T18:35:57.151Z,4.80
2023-01-02T18:38:32.233Z,4.40
2023-01-02T18:40:59.768Z,4.63
2023-01-02T18:43:36.997Z,5.53
2023-01-02T18:47:04.095Z,11.68
2023-01-02T18:49:22.247Z,8.50
2023-01-02T18:52:12.581Z,6.18
2023-01-02T18:54:43.209Z,5.00
2023-01-02T18:57:16.797Z,4.97
2023-01-02T18:59:46.674Z,17.50
2023-01-02T19:02:32.220Z,6.80
2023-01-02T19:04:59.775Z,10.68
2023-01-02T19:07:32.330Z,8.73
2023-01-02T19:10:17.977Z,6.00
2023-01-02T19:13:06.814Z,5.20
2023-01-02T19:15:44.955Z,4.82
2023-01-02T19:18:15.593Z,4.50
2023-01-02T19:20:44.916Z,4.25
2023-01-02T19:23:27.430Z,5.35
2023-01-02T19:25:56.429Z,5.10
2023-01-02T19:28:29.202Z,4.57
2023-01-02T19:30:56.916Z,4.70
2023-01-02T19:33:37.713Z,5.97
2023-01-02T19:36:07.954Z,5.00
2023-01-02T19:38:36.216Z,4.65
2023-01-02T19:41:03.647Z,4.68
2023-01-02T19:43:31.131Z,5.05
2023-01-02T19:45:58.646Z,5.60
2023-01-02T19:48:26.007Z,13.48
2023-01-02T19:50:53.304Z,11.02
2023-01-02T19:53:20.874Z,8.95
2023-01-02T19:55:48.286Z,7.63
2023-01-02T19:58:15.676Z,17.40
2023-01-02T20:00:43.069Z,17.85
2023-01-02T20:03:10.436Z,21.38
2023-01-02T20:05:38.895Z,23.08
2023-01-02T20:08:06.481Z,11.77
2023-01-02T20:10:33.768Z,6.75
2023-01-02T20:13:01.120Z,6.00
2023-01-02T20:15:29.008Z,5.70
2023-01-02T20:17:56.886Z,6.75
2023-01-02T20:20:26.211Z,6.38
2023-01-02T20:22:55.012Z,6.10
2023-01-02T20:25:25.337Z,5.85
2023-01-02T20:30:24.572Z,5.57
2023-01-02T20:32:55.666Z,16.25
2023-01-02T20:35:23.068Z,15.65
2023-01-02T20:37:50.502Z,8.88
2023-01-02T20:40:18.049Z,12.18
2023-01-02T20:42:45.745Z,6.30
2023-01-02T20:45:13.296Z,5.28
2023-01-02T20:47:40.678Z,5.22
2023-01-02T20:50:08.508Z,5.47
2023-01-02T20:52:35.773Z,5.45
2023-01-02T20:55:03.426Z,5.10
2023-01-02T20:57:30.797Z,4.93
2023-01-02T20:59:58.230Z,4.28
2023-01-02T21:02:25.825Z,4.68
2023-01-02T21:04:53.299Z,4.38
2023-01-02T21:07:22.062Z,4.90
2023-01-02T21:09:49.488Z,4.10
2023-01-02T21:12:35.471Z,3.92
2023-01-02T21:15:02.826Z,4.03
2023-01-02T21:17:30.403Z,4.18
2023-01-02T21:19:57.896Z,3.60
2023-01-02T21:22:25.231Z,3.92
2023-01-02T21:24:52.716Z,3.78
2023-01-02T21:27:20.378Z,3.50
2023-01-02T21:29:47.856Z,9.10
2023-01-02T21:32:15.236Z,8.40
2023-01-02T21:34:42.634Z,5.57
2023-01-02T21:37:09.933Z,4.03
2023-01-02T21:39:37.166Z,3.70
2023-01-02T21:42:16.454Z,3.50
2023-01-02T21:44:47.179Z,3.03
2023-01-02T21:47:16.453Z,3.30
2023-01-02T21:49:44.590Z,3.83
2023-01-02T21:52:12.120Z,3.90
2023-01-02T21:54:39.465Z,3.40
2023-01-02T21:57:06.926Z,3.55
2023-01-02T21:59:34.650Z,3.55
2023-01-02T22:02:06.731Z,7.95
2023-01-02T22:04:35.123Z,8.20
2023-01-02T22:09:49.846Z,10.38
2023-01-02T22:12:17.579Z,6.60
2023-01-02T22:14:44.943Z,3.67
2023-01-02T22:17:12.255Z,3.38
2023-01-02T22:19:39.706Z,3.55
2023-01-02T22:22:07.074Z,3.58
2023-01-02T22:24:39.146Z,3.58
2023-01-02T22:27:12.791Z,3.38
2023-01-02T22:30:18.336Z,3.30
2023-01-02T22:32:28.536Z,4.50
2023-01-02T22:34:56.025Z,4.20
2023-01-02T22:37:25.385Z,4.30
2023-01-02T22:39:52.752Z,4.20
2023-01-02T22:43:02.908Z,4.20
2023-01-02T22:45:41.496Z,3.63
2023-01-02T22:48:20.786Z,3.80
2023-01-02T22:50:49.455Z,3.83
2023-01-02T22:53:28.918Z,4.03
2023-01-02T22:55:56.356Z,3.65
2023-01-02T22:58:24.656Z,4.20
2023-01-02T23:01:04.251Z,4.20
2023-01-02T23:03:37.174Z,4.18
2023-01-02T23:06:04.649Z,4.10
2023-01-02T23:08:32.030Z,4.93
2023-01-02T23:10:59.581Z,5.18
2023-01-02T23:13:27.039Z,5.35
2023-01-02T23:16:13.191Z,5.55
2023-01-02T23:18:59.536Z,5.50
2023-01-02T23:21:27.783Z,5.03
2023-01-02T23:23:55.293Z,5.60
2023-01-02T23:26:24.708Z,5.65
2023-01-02T23:29:08.709Z,5.68
2023-01-02T23:31:38.794Z,6.30
2023-01-02T23:34:06.886Z,6.03
2023-01-02T23:36:34.779Z,7.10
2023-01-02T23:39:02.458Z,6.53
2023-01-02T23:41:29.767Z,7.40
2023-01-02T23:43:57.012Z,7.40
2023-01-02T23:46:24.361Z,7.43
2023-01-02T23:48:51.848Z,7.35
2023-01-02T23:51:19.145Z,8.43
2023-01-02T23:53:46.517Z,8.05
2023-01-02T23:56:18.784Z,8.02
2023-01-02T23:58:47.508Z,8.15
